createdAt,value
2019-01-04T00:00:35.699Z,20.50
2019-01-04T00:01:35.687Z,20.10
2019-01-04T00:02:35.690Z,20.20
2019-01-04T00:03:35.668Z,18.60
2019-01-04T00:04:35.652Z,18.40
2019-01-04T00:05:35.636Z,19.40
2019-01-04T00:06:35.625Z,19.10
2019-01-04T00:07:35.635Z,15.90
2019-01-04T00:08:35.607Z,18.50
2019-01-04T00:09:35.593Z,15.00
2019-01-04T00:10:35.581Z,16.70
2019-01-04T00:11:35.585Z,16.50
2019-01-04T00:12:35.583Z,17.90
2019-01-04T00:13:35.548Z,21.50
2019-01-04T00:14:35.536Z,23.20
2019-01-04T00:15:35.527Z,24.60
2019-01-04T00:16:35.522Z,26.50
2019-01-04T00:17:35.547Z,26.30
2019-01-04T00:18:35.491Z,27.10
2019-01-04T00:19:35.487Z,28.30
2019-01-04T00:20:35.470Z,29.00
2019-01-04T00:21:35.460Z,28.70
2019-01-04T00:22:35.495Z,29.20
2019-01-04T00:23:35.446Z,30.00
2019-01-04T00:24:35.444Z,29.20
2019-01-04T00:25:35.416Z,30.20
2019-01-04T00:26:35.407Z,30.00
2019-01-04T00:27:35.392Z,30.00
2019-01-04T00:28:35.407Z,31.50
2019-01-04T00:29:35.380Z,31.40
2019-01-04T00:30:35.360Z,31.80
2019-01-04T00:31:35.347Z,32.10
2019-01-04T00:32:35.336Z,31.30
2019-01-04T00:33:35.347Z,31.20
2019-01-04T00:34:35.313Z,32.00
2019-01-04T00:35:35.321Z,31.60
2019-01-04T00:36:35.290Z,31.00
2019-01-04T00:37:35.281Z,31.70
2019-01-04T00:38:35.293Z,32.30
2019-01-04T00:39:35.258Z,31.90
2019-01-04T00:40:35.246Z,32.70
2019-01-04T00:41:35.238Z,32.50
2019-01-04T00:42:35.222Z,34.90
2019-01-04T00:43:35.235Z,34.80
2019-01-04T00:44:35.201Z,32.60
2019-01-04T00:45:35.189Z,33.30
2019-01-04T00:46:35.179Z,35.40
2019-01-04T00:47:35.181Z,31.90
2019-01-04T00:48:35.180Z,33.70
2019-01-04T00:49:35.146Z,36.40
2019-01-04T00:50:35.134Z,36.10
2019-01-04T00:51:35.124Z,36.20
2019-01-04T00:52:35.121Z,34.40
2019-01-04T00:53:35.136Z,34.90
2019-01-04T00:54:35.089Z,35.60
2019-01-04T00:55:35.080Z,36.40
2019-01-04T00:56:35.072Z,36.90
2019-01-04T00:57:35.057Z,38.30
2019-01-04T00:58:35.079Z,39.70
2019-01-04T00:59:35.048Z,40.10
2019-01-04T01:00:35.024Z,38.90
2019-01-04T01:01:35.015Z,39.60
2019-01-04T01:02:35.001Z,38.70
2019-01-04T01:03:34.991Z,38.20
2019-01-04T01:04:35.004Z,32.90
2019-01-04T01:05:34.985Z,28.80
2019-01-04T01:06:34.957Z,26.30
2019-01-04T01:07:34.950Z,25.90
2019-01-04T01:08:34.936Z,31.70
2019-01-04T01:09:34.950Z,33.30
2019-01-04T01:10:34.915Z,32.20
2019-01-04T01:11:34.922Z,38.40
2019-01-04T01:12:34.892Z,37.70
2019-01-04T01:13:34.885Z,38.70
2019-01-04T01:14:34.898Z,38.80
2019-01-04T01:15:34.860Z,39.70
2019-01-04T01:16:34.848Z,42.00
2019-01-04T01:17:34.850Z,43.00
2019-01-04T01:18:34.825Z,41.50
2019-01-04T01:19:34.815Z,35.90
2019-01-04T01:20:34.828Z,41.20
2019-01-04T01:21:34.806Z,38.30
2019-01-04T01:22:34.783Z,39.70
2019-01-04T01:23:34.795Z,38.30
2019-01-04T01:24:34.763Z,35.00
2019-01-04T01:25:34.779Z,40.00
2019-01-04T01:26:34.742Z,34.10
2019-01-04T01:27:34.729Z,39.00
2019-01-04T01:28:34.717Z,44.80
2019-01-04T01:29:34.706Z,47.40
2019-01-04T01:30:34.733Z,46.10
2019-01-04T01:31:34.693Z,48.50
2019-01-04T01:32:34.673Z,34.70
2019-01-04T01:33:34.670Z,42.00
2019-01-04T01:34:34.651Z,38.60
2019-01-04T01:35:34.735Z,45.90
2019-01-04T01:36:34.636Z,48.00
2019-01-04T01:37:34.616Z,49.10
2019-01-04T01:38:34.606Z,49.60
2019-01-04T01:39:34.595Z,53.80
2019-01-04T01:40:34.584Z,50.10
2019-01-04T01:41:34.627Z,53.10
2019-01-04T01:42:34.561Z,50.70
2019-01-04T01:43:34.551Z,52.60
2019-01-04T01:44:34.540Z,52.50
2019-01-04T01:45:34.528Z,50.40
2019-01-04T01:46:34.541Z,48.10
2019-01-04T01:47:34.525Z,51.50
2019-01-04T01:48:34.496Z,48.20
2019-01-04T01:49:34.484Z,46.20
2019-01-04T01:50:34.475Z,47.00
2019-01-04T01:51:34.485Z,39.70
2019-01-04T01:52:34.451Z,47.20
2019-01-04T01:53:34.446Z,49.60
2019-01-04T01:54:34.450Z,49.70
2019-01-04T01:55:34.422Z,52.20
2019-01-04T01:56:34.444Z,48.00
2019-01-04T01:57:34.397Z,49.20
2019-01-04T01:58:34.389Z,46.60
2019-01-04T01:59:34.374Z,45.30
2019-01-04T02:00:34.374Z,48.60
2019-01-04T02:01:34.369Z,42.90
2019-01-04T02:02:34.373Z,38.10
2019-01-04T02:03:34.331Z,39.00
2019-01-04T02:04:34.321Z,36.80
2019-01-04T02:05:34.308Z,40.40
2019-01-04T02:06:34.301Z,40.50
2019-01-04T02:07:34.311Z,42.60
2019-01-04T02:08:34.288Z,35.10
2019-01-04T02:09:34.265Z,32.70
2019-01-04T02:10:34.256Z,39.70
2019-01-04T02:11:34.245Z,40.10
2019-01-04T02:12:34.258Z,43.80
2019-01-04T02:13:34.222Z,46.10
2019-01-04T02:14:34.228Z,40.80
2019-01-04T02:15:34.201Z,38.70
2019-01-04T02:16:34.190Z,38.60
2019-01-04T02:17:34.213Z,43.30
2019-01-04T02:18:34.168Z,43.50
2019-01-04T02:19:34.158Z,46.00
2019-01-04T02:20:34.156Z,46.30
2019-01-04T02:21:34.134Z,48.30
2019-01-04T02:22:34.124Z,48.30
2019-01-04T02:23:34.138Z,49.70
2019-01-04T02:24:34.102Z,47.80
2019-01-04T02:25:34.092Z,51.00
2019-01-04T02:26:34.096Z,51.50
2019-01-04T02:27:34.070Z,48.80
2019-01-04T02:28:34.082Z,50.70
2019-01-04T02:29:34.051Z,46.40
2019-01-04T02:30:34.038Z,42.80
2019-01-04T02:31:34.030Z,46.70
2019-01-04T02:32:34.021Z,51.30
2019-01-04T02:33:34.028Z,53.20
2019-01-04T02:34:33.996Z,51.20
2019-01-04T02:35:33.985Z,59.20
2019-01-04T02:36:33.971Z,63.50
2019-01-04T02:37:33.960Z,58.80
2019-01-04T02:38:34.006Z,60.60
2019-01-04T02:39:33.941Z,52.00
2019-01-04T02:40:33.928Z,45.20
2019-01-04T02:41:33.918Z,54.30
2019-01-04T02:42:33.908Z,51.80
2019-01-04T02:43:33.956Z,50.00
2019-01-04T02:44:33.931Z,45.30
2019-01-04T02:45:33.875Z,41.60
2019-01-04T02:46:33.862Z,46.80
2019-01-04T02:47:33.851Z,47.20
2019-01-04T02:48:33.839Z,57.40
2019-01-04T02:49:33.853Z,44.10
2019-01-04T02:50:33.850Z,50.70
2019-01-04T02:51:33.808Z,51.60
2019-01-04T02:52:33.803Z,52.60
2019-01-04T02:53:33.795Z,56.10
2019-01-04T02:54:33.798Z,53.80
2019-01-04T02:55:33.766Z,56.80
2019-01-04T02:56:33.802Z,52.20
2019-01-04T02:57:33.765Z,52.00
2019-01-04T02:58:33.735Z,84.00
2019-01-04T02:59:33.750Z,62.30
2019-01-04T03:00:33.709Z,56.00
2019-01-04T03:01:33.699Z,54.10
2019-01-04T03:02:33.691Z,47.20
2019-01-04T03:03:33.699Z,60.50
2019-01-04T03:04:33.702Z,45.00
2019-01-04T03:05:33.656Z,47.20
2019-01-04T03:06:33.654Z,45.60
2019-01-04T03:07:33.635Z,49.20
2019-01-04T03:08:33.623Z,50.70
2019-01-04T03:09:33.634Z,48.40
2019-01-04T03:10:33.624Z,43.00
2019-01-04T03:11:33.590Z,48.30
2019-01-04T03:12:33.579Z,51.40
2019-01-04T03:13:33.568Z,47.70
2019-01-04T03:14:33.567Z,42.80
2019-01-04T03:15:33.594Z,43.10
2019-01-04T03:16:33.535Z,45.80
2019-01-04T03:17:33.525Z,46.60
2019-01-04T03:18:33.519Z,50.50
2019-01-04T03:19:33.506Z,45.80
2019-01-04T03:20:33.565Z,51.80
2019-01-04T03:21:33.501Z,47.00
2019-01-04T03:22:33.470Z,53.60
2019-01-04T03:23:33.460Z,51.60
2019-01-04T03:24:33.448Z,47.60
2019-01-04T03:25:33.569Z,46.80
2019-01-04T03:26:33.430Z,41.60
2019-01-04T03:27:33.456Z,50.90
2019-01-04T03:28:33.414Z,44.10
2019-01-04T03:29:33.408Z,46.20
2019-01-04T03:30:33.556Z,42.70
2019-01-04T03:31:33.372Z,39.40
2019-01-04T03:32:33.363Z,43.70
2019-01-04T03:33:33.365Z,45.10
2019-01-04T03:34:33.338Z,40.70
2019-01-04T03:35:33.330Z,41.20
2019-01-04T03:36:33.347Z,37.50
2019-01-04T03:37:33.305Z,41.40
2019-01-04T03:38:33.296Z,37.60
2019-01-04T03:39:33.293Z,41.80
2019-01-04T03:40:33.273Z,40.20
2019-01-04T03:41:33.286Z,34.30
2019-01-04T03:42:33.270Z,35.10
2019-01-04T03:43:33.239Z,37.30
2019-01-04T03:44:33.228Z,32.60
2019-01-04T03:45:33.225Z,33.50
2019-01-04T03:46:33.236Z,32.80
2019-01-04T03:47:33.197Z,33.80
2019-01-04T03:48:33.187Z,32.80
2019-01-04T03:49:33.176Z,33.90
2019-01-04T03:50:33.165Z,35.40
2019-01-04T03:51:33.183Z,30.20
2019-01-04T03:52:33.142Z,35.50
2019-01-04T03:53:33.139Z,33.20
2019-01-04T03:54:33.121Z,32.40
2019-01-04T03:55:33.117Z,30.90
2019-01-04T03:56:33.145Z,30.40
2019-01-04T03:57:33.091Z,30.00
2019-01-04T03:58:33.081Z,32.40
2019-01-04T03:59:33.065Z,31.60
2019-01-04T04:00:33.055Z,32.50
2019-01-04T04:01:33.081Z,29.00
2019-01-04T04:02:33.035Z,32.80
2019-01-04T04:03:33.021Z,32.80
2019-01-04T04:04:33.031Z,32.10
2019-01-04T04:05:33.004Z,31.50
2019-01-04T04:06:32.990Z,34.00
2019-01-04T04:07:33.002Z,31.70
2019-01-04T04:08:32.967Z,33.70
2019-01-04T04:09:32.960Z,31.80
2019-01-04T04:10:32.982Z,30.40
2019-01-04T04:11:32.934Z,31.60
2019-01-04T04:12:32.948Z,32.70
2019-01-04T04:13:32.913Z,31.00
2019-01-04T04:14:32.903Z,30.40
2019-01-04T04:15:32.891Z,31.50
2019-01-04T04:16:32.888Z,31.50
2019-01-04T04:17:32.892Z,30.80
2019-01-04T04:18:32.862Z,32.40
2019-01-04T04:19:32.847Z,31.20
2019-01-04T04:20:32.835Z,30.30
2019-01-04T04:21:32.833Z,30.60
2019-01-04T04:22:32.855Z,31.50
2019-01-04T04:23:32.803Z,29.30
2019-01-04T04:24:32.795Z,30.10
2019-01-04T04:25:32.792Z,32.20
2019-01-04T04:26:32.772Z,28.60
2019-01-04T04:27:32.785Z,32.10
2019-01-04T04:28:32.758Z,31.40
2019-01-04T04:29:32.740Z,31.30
2019-01-04T04:30:32.728Z,30.50
2019-01-04T04:31:32.716Z,31.20
2019-01-04T04:32:32.745Z,32.50
2019-01-04T04:33:32.696Z,31.80
2019-01-04T04:34:32.712Z,32.10
2019-01-04T04:35:32.674Z,34.30
2019-01-04T04:36:32.663Z,29.30
2019-01-04T04:37:32.651Z,33.70
2019-01-04T04:38:32.665Z,33.30
2019-01-04T04:39:32.631Z,33.30
2019-01-04T04:40:32.629Z,33.10
2019-01-04T04:41:32.608Z,30.20
2019-01-04T04:42:32.597Z,33.70
2019-01-04T04:43:32.646Z,33.40
2019-01-04T04:44:32.584Z,34.80
2019-01-04T04:45:32.563Z,33.50
2019-01-04T04:46:32.559Z,30.60
2019-01-04T04:47:32.541Z,33.70
2019-01-04T04:48:32.553Z,31.60
2019-01-04T04:49:32.517Z,32.40
2019-01-04T04:50:32.514Z,27.00
2019-01-04T04:51:32.495Z,28.10
2019-01-04T04:52:32.524Z,30.50
2019-01-04T04:53:32.495Z,27.40
2019-01-04T04:54:32.461Z,24.30
2019-01-04T04:55:32.450Z,26.00
2019-01-04T04:56:32.440Z,24.90
2019-01-04T04:57:32.440Z,24.90
2019-01-04T04:58:32.444Z,25.70
2019-01-04T04:59:32.406Z,25.50
2019-01-04T05:00:32.397Z,26.60
2019-01-04T05:01:32.382Z,24.60
2019-01-04T05:02:32.373Z,24.60
2019-01-04T05:03:32.390Z,24.30
2019-01-04T05:04:32.353Z,25.30
2019-01-04T05:05:32.340Z,24.60
2019-01-04T05:06:32.330Z,25.20
2019-01-04T05:07:32.320Z,24.90
2019-01-04T05:08:32.341Z,25.20
2019-01-04T05:09:32.324Z,26.10
2019-01-04T05:10:32.283Z,25.70
2019-01-04T05:11:32.272Z,27.70
2019-01-04T05:12:32.261Z,29.10
2019-01-04T05:13:32.251Z,29.90
2019-01-04T05:14:32.261Z,31.30
2019-01-04T05:15:32.256Z,31.90
2019-01-04T05:16:32.218Z,31.90
2019-01-04T05:17:32.204Z,32.40
2019-01-04T05:18:32.194Z,33.90
2019-01-04T05:19:32.207Z,34.00
2019-01-04T05:20:32.173Z,31.60
2019-01-04T05:21:32.184Z,31.50
2019-01-04T05:22:32.157Z,32.20
2019-01-04T05:23:32.138Z,32.60
2019-01-04T05:24:32.149Z,35.10
2019-01-04T05:25:32.117Z,30.10
2019-01-04T05:26:32.107Z,30.60
2019-01-04T05:27:32.107Z,33.60
2019-01-04T05:28:32.081Z,28.40
2019-01-04T05:29:32.094Z,30.00
2019-01-04T05:30:32.062Z,31.30
2019-01-04T05:31:32.048Z,32.60
2019-01-04T05:32:32.036Z,30.60
2019-01-04T05:33:32.038Z,30.30
2019-01-04T05:34:32.038Z,30.30
2019-01-04T05:35:32.006Z,33.10
2019-01-04T05:36:31.993Z,31.90
2019-01-04T05:37:31.983Z,28.70
2019-01-04T05:38:31.969Z,31.70
2019-01-04T05:39:32.155Z,29.30
2019-01-04T05:40:31.946Z,28.70
2019-01-04T05:41:31.937Z,28.80
2019-01-04T05:42:31.927Z,31.10
2019-01-04T05:43:31.915Z,31.10
2019-01-04T05:44:31.902Z,33.20
2019-01-04T05:45:31.929Z,33.90
2019-01-04T05:46:31.881Z,33.60
2019-01-04T05:47:31.868Z,34.30
2019-01-04T05:48:31.861Z,33.30
2019-01-04T05:49:31.848Z,33.00
2019-01-04T05:50:31.859Z,34.70
2019-01-04T05:51:31.837Z,35.90
2019-01-04T05:52:31.813Z,34.80
2019-01-04T05:53:31.802Z,36.40
2019-01-04T05:54:31.789Z,36.30
2019-01-04T05:55:31.803Z,36.10
2019-01-04T05:56:31.769Z,36.40
2019-01-04T05:57:31.763Z,34.90
2019-01-04T05:58:31.744Z,35.40
2019-01-04T05:59:31.733Z,38.70
2019-01-04T06:00:31.747Z,37.80
2019-01-04T06:01:31.719Z,38.00
2019-01-04T06:02:31.699Z,37.90
2019-01-04T06:03:31.708Z,38.20
2019-01-04T06:04:31.678Z,37.10
2019-01-04T06:05:31.691Z,40.20
2019-01-04T06:06:31.655Z,38.90
2019-01-04T06:07:31.644Z,41.50
2019-01-04T06:08:31.637Z,44.70
2019-01-04T06:09:31.632Z,42.60
2019-01-04T06:10:31.647Z,46.00
2019-01-04T06:11:31.598Z,45.20
2019-01-04T06:12:31.586Z,45.80
2019-01-04T06:13:31.576Z,46.10
2019-01-04T06:14:31.566Z,47.60
2019-01-04T06:15:31.564Z,41.30
2019-01-04T06:16:31.570Z,50.30
2019-01-04T06:17:31.531Z,47.40
2019-01-04T06:18:31.521Z,49.90
2019-01-04T06:19:31.509Z,46.20
2019-01-04T06:20:31.504Z,45.60
2019-01-04T06:21:31.521Z,45.10
2019-01-04T06:22:31.482Z,45.40
2019-01-04T06:23:31.469Z,44.30
2019-01-04T06:24:31.454Z,46.80
2019-01-04T06:25:31.442Z,46.60
2019-01-04T06:26:31.486Z,44.70
2019-01-04T06:27:31.420Z,45.60
2019-01-04T06:28:31.413Z,46.60
2019-01-04T06:29:31.399Z,40.80
2019-01-04T06:30:31.387Z,47.30
2019-01-04T06:31:31.400Z,44.70
2019-01-04T06:32:31.391Z,46.20
2019-01-04T06:33:31.354Z,43.40
2019-01-04T06:34:31.342Z,44.90
2019-01-04T06:35:31.333Z,44.10
2019-01-04T06:36:31.351Z,42.70
2019-01-04T06:37:31.310Z,38.30
2019-01-04T06:38:31.305Z,43.80
2019-01-04T06:39:31.287Z,43.40
2019-01-04T06:40:31.277Z,41.20
2019-01-04T06:41:31.410Z,40.30
2019-01-04T06:42:31.255Z,40.80
2019-01-04T06:43:31.244Z,40.40
2019-01-04T06:44:31.250Z,37.80
2019-01-04T06:45:31.225Z,40.90
2019-01-04T06:46:31.210Z,40.70
2019-01-04T06:47:31.227Z,36.80
2019-01-04T06:48:31.189Z,40.20
2019-01-04T06:49:31.179Z,38.80
2019-01-04T06:50:31.178Z,42.00
2019-01-04T06:51:31.157Z,41.80
2019-01-04T06:52:31.170Z,37.80
2019-01-04T06:53:31.143Z,41.20
2019-01-04T06:54:31.122Z,36.30
2019-01-04T06:55:31.112Z,38.30
2019-01-04T06:56:31.110Z,41.00
2019-01-04T06:57:31.130Z,40.10
2019-01-04T06:58:31.081Z,39.30
2019-01-04T06:59:31.072Z,41.10
2019-01-04T07:00:31.058Z,43.20
2019-01-04T07:01:31.050Z,42.60
2019-01-04T07:02:31.051Z,44.20
2019-01-04T07:03:31.055Z,43.40
2019-01-04T07:04:31.015Z,41.40
2019-01-04T07:05:31.747Z,43.60
2019-01-04T07:06:30.999Z,42.50
2019-01-04T07:07:30.982Z,44.00
2019-01-04T07:08:31.016Z,43.70
2019-01-04T07:09:30.962Z,43.90
2019-01-04T07:10:30.950Z,41.40
2019-01-04T07:11:30.939Z,42.40
2019-01-04T07:12:30.929Z,46.40
2019-01-04T07:13:30.943Z,43.30
2019-01-04T07:14:30.921Z,46.60
2019-01-04T07:15:30.895Z,49.80
2019-01-04T07:16:30.885Z,45.20
2019-01-04T07:17:30.875Z,47.70
2019-01-04T07:18:30.888Z,52.20
2019-01-04T07:19:30.852Z,49.20
2019-01-04T07:20:30.868Z,54.40
2019-01-04T07:21:30.832Z,48.30
2019-01-04T07:22:30.820Z,51.10
2019-01-04T07:23:30.832Z,57.00
2019-01-04T07:24:30.799Z,56.50
2019-01-04T07:25:30.787Z,56.30
2019-01-04T07:26:30.783Z,59.20
2019-01-04T07:27:30.765Z,62.80
2019-01-04T07:28:30.789Z,61.50
2019-01-04T07:29:30.744Z,65.80
2019-01-04T07:30:30.740Z,75.20
2019-01-04T07:31:30.720Z,65.60
2019-01-04T07:32:30.719Z,68.40
2019-01-04T07:33:30.707Z,66.70
2019-01-04T07:34:30.716Z,64.00
2019-01-04T07:35:30.677Z,52.40
2019-01-04T07:36:30.667Z,72.00
2019-01-04T07:37:30.658Z,74.10
2019-01-04T07:38:30.654Z,73.90
2019-01-04T07:39:30.660Z,78.10
2019-01-04T07:40:30.623Z,84.00
2019-01-04T07:41:30.615Z,89.00
2019-01-04T07:42:30.605Z,95.00
2019-01-04T07:43:30.590Z,93.60
2019-01-04T07:44:30.620Z,93.10
2019-01-04T07:45:30.603Z,97.10
2019-01-04T07:46:30.558Z,81.30
2019-01-04T07:47:30.555Z,82.00
2019-01-04T07:48:30.545Z,87.40
2019-01-04T07:49:30.528Z,62.90
2019-01-04T07:50:30.545Z,57.10
2019-01-04T07:51:30.517Z,59.30
2019-01-04T07:52:30.510Z,61.10
2019-01-04T07:53:30.483Z,70.00
2019-01-04T07:54:30.472Z,58.70
2019-01-04T07:55:30.485Z,57.50
2019-01-04T07:56:30.456Z,66.30
2019-01-04T07:57:30.461Z,69.00
2019-01-04T07:58:30.429Z,67.00
2019-01-04T07:59:30.420Z,60.80
2019-01-04T08:00:30.431Z,49.50
2019-01-04T08:01:30.396Z,58.90
2019-01-04T08:02:30.402Z,55.40
2019-01-04T08:03:30.374Z,54.80
2019-01-04T08:04:30.363Z,52.90
2019-01-04T08:05:30.383Z,57.00
2019-01-04T08:06:30.342Z,53.90
2019-01-04T08:07:30.330Z,55.20
2019-01-04T08:08:30.332Z,54.60
2019-01-04T08:09:30.317Z,53.90
2019-01-04T08:10:30.332Z,43.70
2019-01-04T08:11:30.287Z,41.30
2019-01-04T08:12:30.277Z,49.20
2019-01-04T08:13:30.265Z,48.90
2019-01-04T08:14:30.269Z,45.10
2019-01-04T08:15:30.243Z,43.50
2019-01-04T08:16:30.260Z,48.60
2019-01-04T08:17:30.223Z,47.10
2019-01-04T08:18:30.211Z,46.20
2019-01-04T08:19:30.201Z,49.00
2019-01-04T08:20:30.197Z,48.70
2019-01-04T08:21:30.203Z,48.70
2019-01-04T08:22:30.167Z,51.50
2019-01-04T08:23:30.157Z,52.10
2019-01-04T08:24:30.149Z,53.70
2019-01-04T08:25:30.143Z,52.80
2019-01-04T08:26:30.166Z,55.00
2019-01-04T08:27:30.112Z,51.40
2019-01-04T08:28:30.102Z,49.80
2019-01-04T08:29:30.096Z,51.20
2019-01-04T08:30:30.081Z,50.50
2019-01-04T08:31:30.104Z,53.00
2019-01-04T08:32:30.066Z,51.00
2019-01-04T08:33:30.049Z,53.70
2019-01-04T08:34:30.039Z,55.10
2019-01-04T08:35:30.025Z,60.30
2019-01-04T08:36:30.015Z,57.80
2019-01-04T08:37:30.029Z,56.80
2019-01-04T08:38:29.999Z,60.10
2019-01-04T08:39:29.987Z,58.30
2019-01-04T08:40:29.975Z,57.60
2019-01-04T08:41:29.962Z,57.20
2019-01-04T08:42:29.980Z,56.80
2019-01-04T08:43:29.943Z,61.40
2019-01-04T08:44:29.942Z,63.80
2019-01-04T08:45:29.921Z,65.80
2019-01-04T08:46:29.906Z,62.70
2019-01-04T08:47:29.899Z,66.40
2019-01-04T08:48:29.907Z,62.80
2019-01-04T08:49:29.875Z,64.30
2019-01-04T08:50:29.878Z,63.80
2019-01-04T08:51:29.852Z,63.60
2019-01-04T08:52:29.842Z,60.40
2019-01-04T08:53:29.852Z,61.50
2019-01-04T08:54:29.820Z,59.50
2019-01-04T08:55:29.809Z,52.70
2019-01-04T08:56:29.810Z,61.10
2019-01-04T08:57:29.787Z,61.20
2019-01-04T08:58:29.800Z,63.50
2019-01-04T08:59:29.766Z,63.00
2019-01-04T09:00:29.753Z,63.50
2019-01-04T09:01:29.743Z,67.30
2019-01-04T09:02:29.735Z,64.80
2019-01-04T09:03:29.743Z,63.30
2019-01-04T09:04:29.710Z,67.50
2019-01-04T09:05:29.707Z,60.40
2019-01-04T09:06:29.689Z,59.30
2019-01-04T09:07:29.677Z,60.10
2019-01-04T09:08:29.695Z,58.30
2019-01-04T09:09:29.655Z,63.00
2019-01-04T09:10:29.644Z,62.20
2019-01-04T09:11:29.633Z,62.80
2019-01-04T09:12:29.623Z,63.80
2019-01-04T09:13:29.636Z,64.50
2019-01-04T09:14:29.610Z,65.20
2019-01-04T09:15:29.589Z,66.30
2019-01-04T09:16:29.579Z,66.60
2019-01-04T09:17:29.571Z,68.10
2019-01-04T09:18:29.592Z,69.80
2019-01-04T09:19:29.546Z,63.20
2019-01-04T09:20:29.544Z,63.80
2019-01-04T09:21:29.524Z,64.90
2019-01-04T09:22:29.513Z,61.90
2019-01-04T09:23:29.502Z,69.80
2019-01-04T09:24:29.513Z,68.60
2019-01-04T09:25:29.480Z,69.90
2019-01-04T09:26:29.485Z,68.50
2019-01-04T09:27:29.457Z,65.50
2019-01-04T09:28:29.449Z,66.20
2019-01-04T09:29:29.460Z,62.20
2019-01-04T09:30:29.426Z,59.30
2019-01-04T09:31:29.415Z,64.40
2019-01-04T09:32:29.430Z,65.40
2019-01-04T09:33:29.403Z,64.50
2019-01-04T09:34:29.408Z,65.00
2019-01-04T09:35:29.370Z,69.20
2019-01-04T09:36:29.363Z,64.80
2019-01-04T09:37:29.365Z,67.00
2019-01-04T09:38:29.337Z,63.40
2019-01-04T09:39:29.362Z,65.10
2019-01-04T09:40:29.332Z,58.10
2019-01-04T09:41:29.310Z,61.30
2019-01-04T09:42:29.294Z,59.40
2019-01-04T09:43:29.291Z,55.50
2019-01-04T09:44:29.274Z,62.30
2019-01-04T09:45:29.309Z,54.00
2019-01-04T09:46:29.248Z,52.90
2019-01-04T09:47:29.239Z,54.50
2019-01-04T09:48:29.229Z,57.30
2019-01-04T09:49:29.228Z,54.80
2019-01-04T09:50:29.249Z,55.60
2019-01-04T09:51:29.195Z,53.80
2019-01-04T09:52:29.185Z,52.30
2019-01-04T09:53:29.173Z,47.40
2019-01-04T09:54:29.161Z,53.60
2019-01-04T09:55:29.184Z,53.00
2019-01-04T09:56:29.140Z,52.80
2019-01-04T09:57:29.129Z,53.10
2019-01-04T09:58:29.118Z,55.70
2019-01-04T09:59:29.114Z,52.40
2019-01-04T10:00:29.122Z,51.90
2019-01-04T10:01:29.090Z,53.90
2019-01-04T10:02:29.082Z,51.20
2019-01-04T10:03:29.065Z,54.70
2019-01-04T10:04:29.052Z,55.60
2019-01-04T10:05:29.083Z,56.10
2019-01-04T10:06:29.030Z,51.30
2019-01-04T10:07:29.023Z,51.70
2019-01-04T10:08:29.028Z,50.70
2019-01-04T10:09:28.998Z,50.80
2019-01-04T10:10:28.988Z,47.60
2019-01-04T10:11:29.001Z,46.80
2019-01-04T10:12:28.965Z,48.00
2019-01-04T10:13:28.956Z,48.30
2019-01-04T10:14:28.947Z,50.10
2019-01-04T10:15:28.933Z,49.70
2019-01-04T10:16:28.945Z,51.00
2019-01-04T10:17:28.911Z,51.70
2019-01-04T10:18:28.900Z,49.50
2019-01-04T10:19:28.891Z,48.90
2019-01-04T10:20:28.887Z,49.10
2019-01-04T10:21:28.893Z,52.10
2019-01-04T10:22:28.859Z,52.00
2019-01-04T10:23:28.847Z,52.00
2019-01-04T10:24:28.835Z,52.80
2019-01-04T10:25:28.823Z,49.60
2019-01-04T10:26:28.950Z,50.90
2019-01-04T10:27:28.801Z,52.40
2019-01-04T10:28:28.793Z,54.00
2019-01-04T10:29:28.780Z,52.00
2019-01-04T10:30:28.770Z,49.70
2019-01-04T10:31:28.759Z,53.10
2019-01-04T10:32:28.780Z,50.50
2019-01-04T10:33:28.737Z,53.10
2019-01-04T10:34:28.726Z,52.80
2019-01-04T10:35:28.718Z,48.90
2019-01-04T10:36:28.704Z,57.50
2019-01-04T10:37:28.716Z,55.70
2019-01-04T10:38:28.690Z,54.00
2019-01-04T10:39:28.672Z,54.40
2019-01-04T10:40:28.662Z,58.70
2019-01-04T10:41:28.650Z,56.20
2019-01-04T10:42:28.662Z,55.30
2019-01-04T10:43:28.629Z,59.00
2019-01-04T10:44:28.628Z,60.40
2019-01-04T10:45:28.605Z,59.70
2019-01-04T10:46:28.594Z,58.50
2019-01-04T10:47:28.606Z,58.20
2019-01-04T10:48:28.572Z,58.90
2019-01-04T10:49:28.561Z,62.20
2019-01-04T10:50:28.559Z,56.10
2019-01-04T10:51:28.539Z,59.80
2019-01-04T10:52:28.551Z,61.60
2019-01-04T10:53:28.517Z,60.50
2019-01-04T10:54:28.506Z,59.00
2019-01-04T10:55:28.497Z,60.40
2019-01-04T10:56:28.492Z,64.30
2019-01-04T10:57:28.499Z,62.90
2019-01-04T10:58:28.462Z,62.40
2019-01-04T10:59:28.452Z,61.00
2019-01-04T11:00:28.444Z,61.70
2019-01-04T11:01:28.431Z,54.80
2019-01-04T11:02:28.724Z,60.40
2019-01-04T11:03:28.409Z,49.20
2019-01-04T11:04:28.396Z,51.40
2019-01-04T11:05:28.388Z,57.50
2019-01-04T11:06:28.374Z,63.10
2019-01-04T11:07:28.374Z,70.20
2019-01-04T11:08:28.375Z,57.50
2019-01-04T11:09:28.339Z,60.20
2019-01-04T11:10:28.329Z,56.40
2019-01-04T11:11:28.318Z,54.00
2019-01-04T11:12:28.310Z,54.20
2019-01-04T11:13:28.329Z,58.40
2019-01-04T11:14:28.286Z,59.10
2019-01-04T11:15:28.275Z,54.20
2019-01-04T11:16:28.298Z,57.70
2019-01-04T11:17:28.251Z,53.70
2019-01-04T11:18:28.263Z,55.00
2019-01-04T11:19:28.233Z,55.50
2019-01-04T11:20:28.224Z,54.00
2019-01-04T11:21:28.207Z,53.40
2019-01-04T11:22:28.202Z,47.70
2019-01-04T11:23:28.213Z,44.00
2019-01-04T11:24:28.173Z,42.50
2019-01-04T11:25:28.162Z,49.10
2019-01-04T11:26:28.159Z,47.50
2019-01-04T11:27:28.144Z,49.20
2019-01-04T11:28:28.153Z,45.70
2019-01-04T11:29:28.125Z,46.60
2019-01-04T11:30:28.108Z,45.00
2019-01-04T11:31:28.097Z,44.60
2019-01-04T11:32:28.084Z,39.80
2019-01-04T11:33:28.128Z,44.40
2019-01-04T11:34:28.063Z,44.00
2019-01-04T11:35:28.055Z,44.00
2019-01-04T11:36:28.040Z,41.50
2019-01-04T11:37:28.031Z,44.00
2019-01-04T11:38:28.042Z,43.80
2019-01-04T11:39:28.019Z,40.30
2019-01-04T11:40:28.000Z,38.10
2019-01-04T11:41:27.987Z,37.60
2019-01-04T11:42:27.985Z,36.10
2019-01-04T11:43:27.997Z,39.50
2019-01-04T11:44:27.954Z,37.20
2019-01-04T11:45:27.949Z,37.50
2019-01-04T11:46:27.947Z,37.50
2019-01-04T11:47:27.923Z,31.60
2019-01-04T11:48:27.908Z,32.90
2019-01-04T11:49:27.921Z,30.30
2019-01-04T11:50:27.888Z,33.40
2019-01-04T11:51:27.887Z,35.20
2019-01-04T11:52:31.137Z,35.10
2019-01-04T11:53:27.861Z,34.80
2019-01-04T11:54:27.873Z,32.90
2019-01-04T11:55:27.831Z,34.70
2019-01-04T11:56:27.822Z,35.80
2019-01-04T11:57:27.819Z,36.30
2019-01-04T11:58:27.798Z,35.60
2019-01-04T11:59:27.813Z,36.50
2019-01-04T12:00:27.778Z,37.10
2019-01-04T12:01:27.766Z,37.00
2019-01-04T12:02:27.754Z,32.30
2019-01-04T12:03:27.756Z,35.80
2019-01-04T12:04:27.757Z,34.60
2019-01-04T12:05:27.728Z,35.10
2019-01-04T12:06:27.714Z,33.10
2019-01-04T12:07:27.699Z,33.50
2019-01-04T12:08:27.698Z,32.90
2019-01-04T12:09:27.719Z,30.90
2019-01-04T12:10:27.682Z,31.80
2019-01-04T12:11:27.654Z,29.20
2019-01-04T12:12:27.651Z,31.50
2019-01-04T12:13:27.634Z,34.20
2019-01-04T12:14:27.651Z,30.20
2019-01-04T12:15:27.626Z,31.50
2019-01-04T12:16:27.599Z,26.70
2019-01-04T12:17:27.590Z,27.20
2019-01-04T12:18:27.576Z,26.00
2019-01-04T12:19:27.565Z,27.60
2019-01-04T12:20:27.577Z,25.10
2019-01-04T12:21:27.549Z,25.20
2019-01-04T12:22:27.549Z,26.60
2019-01-04T12:23:27.602Z,28.00
2019-01-04T12:24:27.515Z,24.10
2019-01-04T12:25:27.524Z,28.70
2019-01-04T12:26:27.487Z,28.40
2019-01-04T12:27:27.476Z,27.70
2019-01-04T12:28:27.466Z,29.40
2019-01-04T12:29:27.472Z,28.80
2019-01-04T12:30:27.468Z,28.90
2019-01-04T12:31:27.435Z,28.30
2019-01-04T12:32:27.425Z,29.20
2019-01-04T12:33:27.410Z,24.20
2019-01-04T12:34:27.424Z,26.40
2019-01-04T12:35:27.423Z,23.50
2019-01-04T12:36:27.395Z,27.90
2019-01-04T12:37:27.365Z,30.20
2019-01-04T12:38:27.354Z,30.60
2019-01-04T12:39:27.343Z,30.00
2019-01-04T12:40:27.332Z,25.50
2019-01-04T12:41:27.343Z,28.00
2019-01-04T12:42:27.319Z,28.70
2019-01-04T12:43:27.300Z,28.70
2019-01-04T12:44:27.287Z,27.00
2019-01-04T12:45:27.276Z,28.70
2019-01-04T12:46:27.287Z,23.40
2019-01-04T12:47:27.257Z,26.50
2019-01-04T12:48:27.250Z,26.40
2019-01-04T12:49:27.232Z,28.10
2019-01-04T12:50:27.221Z,25.30
2019-01-04T12:51:27.233Z,27.40
2019-01-04T12:52:27.198Z,29.00